Time;durP1;ratioP1;P1;durP2;ratioP2;P2;SDS_P1;SDS_P2;PMS_P1;PMS_P2;Temp;Humidity;BMP_temperature;BMP_pressure;BME280_temperature;BME280_humidity;BME280_pressure;Samples;Min_cycle;Max_cycle;Signal;HPM_P1;HPM_P2
2023/06/11 19:54:57;;;;;;;2.83;2.63;;;;;;;21.43;49.32;95320.03;4346216;32;20272;-63
2023/06/11 19:57:25;;;;;;;7.17;6.67;;;;;;;21.37;49.53;95314.16;4328818;32;20193;-66
2023/06/11 20:03:24;;;;;;;1.90;1.80;;;;;;;21.39;49.86;95305.72;4337353;28;303570;-69
2023/06/11 20:05:50;;;;;;;0.93;0.93;;;;;;;21.34;50.14;95319.50;4331409;33;20280;-70
2023/06/11 20:08:15;;;;;;;1.90;1.80;;;;;;;21.18;50.84;95320.41;4329079;32;20180;-69
2023/06/11 20:10:42;;;;;;;1.73;1.63;;;;;;;21.22;50.87;95328.56;4331882;32;20197;-70
2023/06/11 20:13:07;;;;;;;9.47;3.63;;;;;;;21.13;51.21;95331.50;4333248;32;20204;-69
2023/06/11 20:15:32;;;;;;;2.17;2.00;;;;;;;21.13;51.40;95336.87;4336692;32;20189;-69
2023/06/11 20:17:58;;;;;;;1.17;1.17;;;;;;;21.14;51.67;95335.75;4336322;32;20228;-69
2023/06/11 20:20:24;;;;;;;1.60;1.50;;;;;;;21.15;51.46;95337.31;4335664;32;20197;-68
2023/06/11 20:22:49;;;;;;;1.50;1.40;;;;;;;21.17;51.64;95342.34;4318256;33;20229;-69
2023/06/11 20:25:16;;;;;;;0.90;0.90;;;;;;;21.15;51.56;95341.94;4341804;32;20181;-69
2023/06/11 20:27:41;;;;;;;1.10;1.10;;;;;;;21.17;51.63;95343.13;4342108;32;20181;-69
2023/06/11 20:30:07;;;;;;;0.90;0.90;;;;;;;21.05;52.03;95345.22;4345702;32;20212;-68
2023/06/11 20:32:32;;;;;;;0.90;0.90;;;;;;;20.98;52.26;95345.09;4345928;32;20198;-69
2023/06/11 20:34:58;;;;;;;1.03;1.03;;;;;;;20.84;52.93;95348.31;4332951;33;20228;-68
2023/06/11 20:37:23;;;;;;;1.20;1.20;;;;;;;20.77;53.25;95340.88;4340540;32;20212;-67
2023/06/11 20:39:48;;;;;;;1.07;1.07;;;;;;;20.86;53.27;95332.56;4336628;33;20205;-68
2023/06/11 20:42:14;;;;;;;0.90;0.90;;;;;;;20.83;53.17;95344.06;4345846;33;20181;-68
2023/06/11 20:44:40;;;;;;;1.00;1.00;;;;;;;20.82;53.34;95347.88;4346656;33;20189;-69
2023/06/11 20:47:06;;;;;;;0.90;0.90;;;;;;;20.74;53.83;95346.22;4330422;33;20257;-69
2023/06/11 20:49:32;;;;;;;1.37;1.33;;;;;;;20.75;53.80;95342.38;4338386;32;20213;-68
2023/06/11 20:51:57;;;;;;;1.00;1.00;;;;;;;20.67;54.29;95346.06;4322443;33;20209;-68
2023/06/11 20:54:22;;;;;;;1.33;1.10;;;;;;;20.45;55.01;95342.19;4330766;32;20205;-69
2023/06/11 20:56:48;;;;;;;0.83;0.83;;;;;;;20.54;55.02;95345.44;4331660;32;20252;-68
2023/06/11 20:59:13;;;;;;;1.93;1.83;;;;;;;20.50;55.43;95348.06;4329914;32;20268;-68
2023/06/11 21:01:38;;;;;;;1.07;0.90;;;;;;;20.55;55.24;95349.72;4337152;32;20301;-68
2023/06/11 21:04:04;;;;;;;0.77;0.77;;;;;;;20.41;55.77;95344.03;4332794;32;20194;-68
2023/06/11 21:06:30;;;;;;;1.70;1.60;;;;;;;20.44;55.80;95346.78;4334028;32;20196;-69
2023/06/11 21:08:55;;;;;;;0.70;0.70;;;;;;;20.47;55.82;95343.41;4329922;32;20181;-68
2023/06/11 21:11:21;;;;;;;1.90;1.40;;;;;;;20.42;56.35;95349.06;4349393;32;20189;-68
2023/06/11 21:13:46;;;;;;;1.83;1.73;;;;;;;20.36;56.79;95353.16;4347697;32;20219;-69
2023/06/11 21:16:12;;;;;;;2.00;1.20;;;;;;;20.29;57.62;95349.53;4341753;32;20269;-69
2023/06/11 21:18:37;;;;;;;0.90;0.90;;;;;;;20.31;57.30;95350.75;4318075;32;20205;-69
2023/06/11 21:21:03;;;;;;;1.80;1.70;;;;;;;20.29;57.56;95344.94;4339431;32;20194;-68
2023/06/11 21:23:28;;;;;;;0.90;0.90;;;;;;;20.18;58.67;95346.59;4343224;32;20251;-70
2023/06/11 21:25:53;;;;;;;0.97;0.97;;;;;;;20.16;58.39;95346.22;4339170;32;20181;-68
2023/06/11 21:28:19;;;;;;;1.90;1.33;;;;;;;20.15;58.65;95345.44;4351000;32;20196;-70
2023/06/11 21:30:45;;;;;;;1.40;1.40;;;;;;;20.02;59.54;95343.19;4348704;32;20220;-70
2023/06/11 21:33:11;;;;;;;1.07;0.97;;;;;;;20.03;59.61;95336.69;4347972;32;20297;-70
2023/06/11 21:35:36;;;;;;;1.63;1.57;;;;;;;19.97;60.11;95333.47;4348993;32;20181;-70
2023/06/11 21:38:01;;;;;;;0.77;0.77;;;;;;;20.07;59.74;95337.53;4349029;32;20228;-70
2023/06/11 21:40:27;;;;;;;2.73;1.83;;;;;;;20.07;60.02;95332.16;4331816;32;20182;-70
2023/06/11 21:42:52;;;;;;;0.93;0.93;;;;;;;20.00;60.83;95337.37;4341694;32;20194;-70
2023/06/11 21:45:17;;;;;;;1.20;1.20;;;;;;;19.98;61.06;95334.25;4329472;32;20194;-70
2023/06/11 21:47:42;;;;;;;1.23;1.13;;;;;;;19.96;60.72;95334.59;4344804;32;20194;-70
2023/06/11 21:50:08;;;;;;;1.50;1.00;;;;;;;19.96;60.91;95331.13;4332681;33;20224;-70
2023/06/11 21:52:37;;;;;;;1.40;1.30;;;;;;;19.87;61.09;95337.50;4345382;32;20227;-70
2023/06/11 21:55:04;;;;;;;1.37;1.20;;;;;;;19.89;61.60;95329.88;4338761;32;20189;-70
2023/06/11 21:57:29;;;;;;;1.73;1.63;;;;;;;19.82;62.14;95329.72;4331132;32;20321;-70
2023/06/11 21:59:55;;;;;;;1.70;1.60;;;;;;;19.90;61.82;95328.75;4336871;32;20198;-70
2023/06/11 22:02:20;;;;;;;1.20;1.20;;;;;;;19.80;62.33;95337.34;4345303;32;20178;-70
2023/06/11 22:04:45;;;;;;;0.90;0.90;;;;;;;19.85;61.87;95333.62;4348094;32;20189;-70
2023/06/11 22:07:13;;;;;;;1.73;1.67;;;;;;;19.82;61.93;95331.63;4347941;32;20186;-69
2023/06/11 22:09:40;;;;;;;1.77;1.67;;;;;;;19.78;63.30;95328.84;4334666;32;20251;-69
2023/06/11 22:12:06;;;;;;;1.00;1.00;;;;;;;19.74;62.01;95330.69;4348394;32;20178;-69
2023/06/11 22:14:31;;;;;;;0.90;0.90;;;;;;;19.83;61.43;95336.66;4348445;32;20196;-69
2023/06/11 22:16:57;;;;;;;1.27;1.23;;;;;;;19.78;62.21;95333.44;4334343;32;20212;-69
2023/06/11 22:19:23;;;;;;;1.47;1.40;;;;;;;19.66;63.49;95331.66;4325310;33;20241;-69
2023/06/11 22:21:50;;;;;;;1.17;1.17;;;;;;;19.63;62.83;95331.56;4328863;32;20189;-69
2023/06/11 22:24:15;;;;;;;1.50;1.47;;;;;;;19.63;62.75;95332.34;4333797;32;20270;-69
2023/06/11 22:26:43;;;;;;;0.97;0.97;;;;;;;19.60;62.64;95332.28;4347433;32;20189;-69
2023/06/11 22:29:08;;;;;;;3.57;1.40;;;;;;;19.55;63.40;95323.34;4343432;32;20185;-69
2023/06/11 22:31:34;;;;;;;1.23;1.23;;;;;;;19.59;64.21;95328.81;4332363;32;20185;-69
2023/06/11 22:33:59;;;;;;;1.13;1.13;;;;;;;19.55;63.83;95325.25;4348062;32;20203;-69
2023/06/11 22:36:25;;;;;;;1.17;1.07;;;;;;;19.60;63.36;95329.59;4345734;32;20185;-70
2023/06/11 22:38:50;;;;;;;1.33;1.33;;;;;;;19.44;64.84;95322.28;4335999;32;20194;-69
2023/06/11 22:41:15;;;;;;;2.10;0.97;;;;;;;19.49;63.90;95326.63;4330224;33;20196;-71
2023/06/11 22:43:40;;;;;;;0.40;0.40;;;;;;;19.37;64.32;95330.19;4336523;32;20193;-69
2023/06/11 22:46:06;;;;;;;0.97;0.97;;;;;;;19.30;64.65;95324.66;4340757;32;20205;-69
2023/06/11 22:48:31;;;;;;;2.37;2.17;;;;;;;19.26;66.31;95328.37;4345308;32;20307;-69
2023/06/11 22:50:57;;;;;;;1.10;1.10;;;;;;;19.31;66.23;95320.06;4331372;32;20241;-68
2023/06/11 22:53:23;;;;;;;1.17;1.17;;;;;;;19.29;65.13;95327.69;4340485;32;20186;-69
2023/06/11 22:55:49;;;;;;;0.90;0.90;;;;;;;19.21;64.90;95316.75;4331248;32;20245;-69
2023/06/11 22:58:14;;;;;;;1.77;1.67;;;;;;;19.14;66.33;95319.25;4346695;32;20276;-69
2023/06/11 23:00:40;;;;;;;1.20;1.20;;;;;;;19.20;66.76;95317.88;4347584;32;20236;-69
2023/06/11 23:03:07;;;;;;;1.80;1.37;;;;;;;19.15;66.06;95317.34;4347099;32;20217;-69
2023/06/11 23:05:34;;;;;;;0.77;0.77;;;;;;;19.09;68.12;95326.84;4344661;32;20243;-69
2023/06/11 23:08:00;;;;;;;1.20;1.20;;;;;;;19.14;67.03;95321.97;4344436;32;20276;-69
2023/06/11 23:10:26;;;;;;;1.13;1.13;;;;;;;19.00;66.52;95318.16;4331970;32;20182;-68
2023/06/11 23:12:52;;;;;;;1.90;1.80;;;;;;;18.98;66.69;95318.50;4349319;32;20195;-68
2023/06/11 23:15:18;;;;;;;1.17;1.17;;;;;;;19.04;67.61;95314.41;4331322;33;20182;-68
2023/06/11 23:17:49;;;;;;;1.50;1.50;;;;;;;19.05;66.79;95310.59;4330778;32;20228;-69
2023/06/11 23:20:16;;;;;;;0.97;0.97;;;;;;;19.06;68.35;95306.00;4339084;32;20330;-69
2023/06/11 23:22:42;;;;;;;2.17;1.80;;;;;;;19.02;68.75;95313.19;4330894;32;20198;-69
2023/06/11 23:25:10;;;;;;;0.90;0.90;;;;;;;18.92;67.05;95311.03;4331723;32;20194;-68
2023/06/11 23:27:37;;;;;;;1.37;1.33;;;;;;;18.93;69.45;95309.91;4337018;32;20214;-68
2023/06/11 23:30:04;;;;;;;1.60;1.50;;;;;;;18.95;68.54;95311.13;4337588;32;20225;-68
2023/06/11 23:32:30;;;;;;;1.93;1.83;;;;;;;18.97;69.04;95311.56;4329437;32;20239;-68
2023/06/11 23:34:59;;;;;;;1.43;1.43;;;;;;;18.98;68.08;95299.66;4337607;32;20201;-68
2023/06/11 23:37:24;;;;;;;2.83;1.67;;;;;;;19.01;69.66;95298.97;4335192;32;20219;-68
2023/06/11 23:39:50;;;;;;;1.20;1.20;;;;;;;18.95;69.74;95302.25;4334627;32;20185;-69
2023/06/11 23:42:15;;;;;;;4.33;1.53;;;;;;;18.88;68.63;95294.81;4332971;32;20257;-69
2023/06/11 23:44:40;;;;;;;0.90;0.90;;;;;;;19.01;70.42;95298.97;4346772;32;20194;-69
2023/06/11 23:47:06;;;;;;;1.00;1.00;;;;;;;18.99;69.42;95295.84;4345472;32;20205;-69
2023/06/11 23:49:31;;;;;;;1.10;1.00;;;;;;;18.98;69.58;95296.97;4345766;32;20195;-68
2023/06/11 23:51:56;;;;;;;1.27;1.27;;;;;;;18.94;70.35;95285.34;4344473;32;20197;-69
2023/06/11 23:54:22;;;;;;;1.17;1.17;;;;;;;18.81;69.74;95289.25;4348062;32;20204;-68
2023/06/11 23:56:47;;;;;;;0.90;0.90;;;;;;;18.85;69.64;95287.44;4339360;32;20196;-69
2023/06/11 23:59:13;;;;;;;1.23;1.23;;;;;;;18.81;69.31;95286.56;4332286;32;20193;-68
